TCY weather

Tracy Municipal Airport
Tracy, California, United States

Public forecast

Using degrees Fahrenheit for public forecast. Weather courtesy of forecast.io.

Closest aviation weather report (METAR) to Tracy Municipal Airport

Closest report is Stockton Metropolitan Airport, 15.7 nm (29.0 km) NE. Retrieved 2019/10/23 02:55 UTC (37 minutes ago):

KSCK 230255Z 29004KT 10SM CLR 21/08 A3004 RMK AO2 SLP171 T02110078 55005

Closest aviation forecast (TAF) to Tracy Municipal Airport

Closest forecast is Stockton Metropolitan Airport, 15.7 nm (29.0 km) NE. Retrieved 2019-10-23 00:22 UTC (3 hours ago):

TAF KSCK 222320Z 2300/2324 31006KT P6SM SKC FM232100 33014KT P6SM SKC